Time;durP1;ratioP1;P1;durP2;ratioP2;P2;SDS_P1;SDS_P2;PMS_P1;PMS_P2;Temp;Humidity;BMP_temperature;BMP_pressure;BME280_temperature;BME280_humidity;BME280_pressure;Samples;Min_cycle;Max_cycle;Signal;HPM_P1;HPM_P2
2022/03/21 00:02:21;;;;;;;60.05;24.98;;;;;;;0.39;41.41;96868.13;4982791;28;20078;-83
2022/03/21 00:04:46;;;;;;;65.20;27.15;;;;;;;0.78;41.63;96954.28;4983349;28;20137;-84
2022/03/21 00:07:11;;;;;;;57.97;25.92;;;;;;;0.92;41.34;96942.31;4983579;28;20129;-82
2022/03/21 00:09:37;;;;;;;62.30;25.40;;;;;;;0.05;41.33;96820.63;4982467;28;20108;-82
2022/03/21 00:12:04;;;;;;;66.50;27.33;;;;;;;-0.07;41.62;96806.31;4981878;28;20069;-82
2022/03/21 00:14:29;;;;;;;62.47;25.50;;;;;;;0.71;41.79;96942.09;4982267;28;20050;-83
2022/03/21 00:16:55;;;;;;;65.10;25.50;;;;;;;-0.85;42.48;96707.94;4981953;28;20097;-83
2022/03/21 00:19:20;;;;;;;63.28;24.63;;;;;;;-0.20;43.39;96835.50;4984146;28;20488;-83
2022/03/21 00:21:46;;;;;;;58.03;24.17;;;;;;;-0.81;43.35;96747.47;4982433;28;20046;-83
2022/03/21 00:24:11;;;;;;;59.13;25.10;;;;;;;-0.27;43.57;96842.38;4983415;28;20056;-83
2022/03/21 00:26:37;;;;;;;57.22;24.75;;;;;;;-0.31;44.33;96845.50;4983955;28;20073;-83
2022/03/21 00:29:02;;;;;;;63.13;24.90;;;;;;;-0.05;44.65;96911.28;4982463;28;20702;-84
2022/03/21 00:31:28;;;;;;;70.97;26.52;;;;;;;0.35;44.35;96968.63;4983220;28;20141;-84
2022/03/21 00:33:54;;;;;;;72.00;27.10;;;;;;;-0.68;45.09;96822.53;4981070;28;20853;-83
2022/03/21 00:36:20;;;;;;;63.22;25.55;;;;;;;-1.27;44.99;96726.34;4983697;28;20034;-84
2022/03/21 00:38:45;;;;;;;57.03;24.85;;;;;;;-0.26;45.60;96917.00;4982387;28;20357;-82
2022/03/21 00:41:11;;;;;;;65.82;25.83;;;;;;;-0.93;45.24;96824.31;4981787;28;20582;-82
2022/03/21 00:43:36;;;;;;;52.15;23.83;;;;;;;-1.01;45.79;96825.13;4982020;28;20141;-82
2022/03/21 00:46:02;;;;;;;65.55;23.95;;;;;;;-0.17;45.85;96968.19;4980990;28;20077;-82
2022/03/21 00:48:30;;;;;;;64.65;25.83;;;;;;;-0.49;45.50;96916.03;4982536;28;20065;-83
2022/03/21 00:50:57;;;;;;;63.05;25.40;;;;;;;-0.29;46.29;96958.22;4983608;28;20042;-83
2022/03/21 00:53:23;;;;;;;57.78;24.50;;;;;;;-0.74;45.93;96870.06;4983845;28;20460;-82
2022/03/21 00:55:49;;;;;;;53.25;23.67;;;;;;;-0.49;45.47;96898.59;4982623;28;20038;-83
2022/03/21 00:58:16;;;;;;;57.58;24.42;;;;;;;-0.06;45.66;96948.75;4982992;28;20253;-83
2022/03/21 01:00:42;;;;;;;56.33;23.05;;;;;;;-0.12;46.04;96959.84;4981738;28;20695;-83
2022/03/21 01:03:08;;;;;;;59.55;24.70;;;;;;;-0.52;45.86;96872.84;4981327;28;20038;-84
2022/03/21 01:05:34;;;;;;;56.28;23.77;;;;;;;-1.34;45.93;96730.56;4982544;28;20066;-83
2022/03/21 01:08:02;;;;;;;62.95;25.02;;;;;;;-1.34;46.32;96760.97;4982247;28;20066;-83
2022/03/21 01:10:29;;;;;;;63.90;25.75;;;;;;;-0.82;46.42;96842.22;4982316;28;20045;-83
2022/03/21 01:12:55;;;;;;;64.13;25.98;;;;;;;-0.43;46.19;96895.34;4981613;28;20076;-83
2022/03/21 01:15:24;;;;;;;55.72;25.08;;;;;;;0.07;46.27;96937.84;4983165;28;20505;-83
2022/03/21 01:17:51;;;;;;;68.45;26.15;;;;;;;-0.49;46.18;96832.63;4983319;28;20042;-83
2022/03/21 01:20:19;;;;;;;59.75;27.23;;;;;;;0.25;46.28;96935.84;4983518;28;20038;-83
2022/03/21 01:22:45;;;;;;;67.32;28.15;;;;;;;-0.42;46.70;96862.25;4983599;28;20046;-83
2022/03/21 01:25:13;;;;;;;63.97;26.63;;;;;;;0.25;46.96;96944.50;4981386;28;20053;-83
2022/03/21 01:27:39;;;;;;;70.18;28.60;;;;;;;-1.02;46.47;96732.38;4980589;28;20061;-83
2022/03/21 01:30:11;;;;;;;75.80;30.77;;;;;;;-0.05;46.53;96875.56;4981634;28;20038;-83
2022/03/21 01:32:37;;;;;;;73.88;31.75;;;;;;;0.39;46.28;96925.53;4981757;28;20696;-83
2022/03/21 01:35:04;;;;;;;84.13;34.78;;;;;;;-1.95;46.96;96650.31;4980980;28;20439;-83
2022/03/21 01:37:30;;;;;;;94.60;38.92;;;;;;;-0.73;46.53;96793.53;4980808;28;20034;-83
2022/03/21 01:39:55;;;;;;;97.57;39.92;;;;;;;-0.35;46.72;96859.81;4985209;28;20038;-83
2022/03/21 01:42:21;;;;;;;95.47;39.13;;;;;;;-0.61;46.36;96798.25;4986776;28;20304;-83
2022/03/21 01:44:50;;;;;;;93.20;39.45;;;;;;;-0.93;46.08;96767.03;4984835;28;20829;-83
2022/03/21 01:47:16;;;;;;;111.35;39.22;;;;;;;0.24;45.60;96914.16;4984214;28;20500;-83
2022/03/21 01:49:41;;;;;;;98.20;37.55;;;;;;;-0.76;45.37;96765.25;4984162;28;20030;-83
2022/03/21 01:52:06;;;;;;;93.90;38.00;;;;;;;-1.05;45.01;96700.63;4984768;28;20042;-84
2022/03/21 01:57:16;;;;;;;99.90;38.15;;;;;;;-0.28;44.54;96868.59;4985781;28;20049;-83
2022/03/21 01:59:42;;;;;;;98.22;39.58;;;;;;;-0.12;44.71;96864.19;4984859;28;20026;-83
2022/03/21 02:02:08;;;;;;;106.20;38.92;;;;;;;-0.29;44.95;96836.50;4985226;28;20062;-83
2022/03/21 02:04:34;;;;;;;111.30;39.90;;;;;;;-0.76;45.41;96799.09;4984343;28;20045;-83
2022/03/21 02:06:59;;;;;;;108.90;40.50;;;;;;;-0.21;45.25;96869.56;4983689;28;20125;-83
2022/03/21 02:09:25;;;;;;;102.38;40.83;;;;;;;-2.30;45.47;96524.06;4984129;28;20099;-83
2022/03/21 02:11:51;;;;;;;99.05;38.80;;;;;;;-2.19;45.57;96560.13;4985884;28;20046;-83
2022/03/21 02:14:16;;;;;;;101.68;38.83;;;;;;;-0.20;45.98;96902.50;4986132;28;20034;-83
2022/03/21 02:16:42;;;;;;;89.28;36.58;;;;;;;-0.31;46.70;96916.69;4983965;28;20034;-83
2022/03/21 02:19:15;;;;;;;95.85;35.03;;;;;;;-0.16;46.48;96899.41;4986833;28;20133;-84
2022/03/21 02:21:55;;;;;;;96.18;35.42;;;;;;;-1.26;46.62;96738.38;4986104;28;20497;-84
2022/03/21 02:24:43;;;;;;;89.20;36.55;;;;;;;-0.38;46.99;96907.88;4984859;28;20484;-84
2022/03/21 02:27:10;;;;;;;84.65;34.97;;;;;;;-1.04;47.96;96835.84;4983755;28;20128;-83
2022/03/21 02:29:37;;;;;;;94.97;36.47;;;;;;;-0.92;48.02;96841.59;4985629;28;20058;-83
2022/03/21 02:32:05;;;;;;;90.20;35.92;;;;;;;-0.67;47.20;96858.84;4983008;28;20207;-83
2022/03/21 02:34:33;;;;;;;79.35;35.90;;;;;;;-0.27;47.09;96931.03;4986016;28;20125;-83
2022/03/21 02:36:59;;;;;;;94.15;35.97;;;;;;;-0.21;47.00;96913.91;4982917;28;20561;-83
2022/03/21 02:39:27;;;;;;;95.85;39.10;;;;;;;-0.26;47.44;96918.81;4985162;28;20073;-82
2022/03/21 02:41:53;;;;;;;132.15;46.47;;;;;;;-1.14;46.75;96774.53;4984781;28;20109;-82
2022/03/21 02:44:18;;;;;;;122.78;42.85;;;;;;;-2.54;46.77;96535.22;4983589;28;20124;-82
2022/03/21 02:46:45;;;;;;;123.80;43.10;;;;;;;-1.13;46.88;96768.31;4984777;28;20043;-82
2022/03/21 02:49:11;;;;;;;120.20;45.28;;;;;;;-0.86;46.87;96805.28;4984398;28;20038;-82
2022/03/21 02:51:39;;;;;;;111.53;42.75;;;;;;;0.04;46.28;96920.72;4984606;28;20418;-83
2022/03/21 02:54:05;;;;;;;151.60;53.00;;;;;;;-1.10;46.71;96765.41;4984380;28;20042;-83
2022/03/21 02:56:31;;;;;;;133.90;51.38;;;;;;;-0.65;46.75;96850.88;4985798;28;20674;-83
2022/03/21 02:58:56;;;;;;;165.90;55.25;;;;;;;-1.32;47.35;96765.06;4982580;28;20082;-83
2022/03/21 03:01:22;;;;;;;146.60;54.80;;;;;;;-1.62;47.08;96698.81;4985038;28;20039;-83
2022/03/21 03:03:47;;;;;;;136.27;49.80;;;;;;;-1.95;47.80;96697.94;4983238;28;20038;-83
2022/03/21 03:06:13;;;;;;;134.63;50.63;;;;;;;-1.16;47.92;96808.50;4983752;28;20818;-83
2022/03/21 03:08:41;;;;;;;141.45;52.38;;;;;;;-1.28;47.89;96794.16;4985031;28;20118;-82
2022/03/21 03:11:07;;;;;;;142.48;50.63;;;;;;;-0.97;47.73;96839.44;4983669;28;20081;-82
2022/03/21 03:13:32;;;;;;;132.73;48.00;;;;;;;-0.52;48.14;96917.16;4984829;28;20093;-82
2022/03/21 03:15:58;;;;;;;126.88;49.60;;;;;;;-0.63;48.40;96930.50;4983314;28;20037;-83
2022/03/21 03:18:24;;;;;;;133.75;49.20;;;;;;;-1.26;49.04;96839.91;4983544;28;20034;-83
2022/03/21 03:20:52;;;;;;;135.73;47.78;;;;;;;-1.34;48.48;96826.84;4983379;28;20049;-83
2022/03/21 03:23:19;;;;;;;125.43;47.58;;;;;;;-1.41;48.59;96788.63;4985202;28;20471;-83
2022/03/21 03:25:46;;;;;;;133.70;47.53;;;;;;;-1.06;48.14;96834.38;4982644;28;20034;-83
2022/03/21 03:28:15;;;;;;;118.97;45.55;;;;;;;-1.10;48.50;96838.28;4984430;28;20058;-82
2022/03/21 03:30:40;;;;;;;112.45;42.67;;;;;;;-0.49;48.18;96927.28;4983447;28;20575;-84
2022/03/21 03:33:10;;;;;;;117.18;42.25;;;;;;;-1.28;48.28;96818.41;4983085;28;20054;-82
2022/03/21 03:35:36;;;;;;;103.50;39.40;;;;;;;-1.73;48.55;96750.31;4984779;28;20023;-82
2022/03/21 03:38:02;;;;;;;101.75;39.15;;;;;;;-1.27;49.21;96847.84;4983651;28;20089;-82
2022/03/21 03:40:27;;;;;;;104.55;41.83;;;;;;;-0.90;50.18;96923.78;4983434;28;20037;-82
2022/03/21 03:42:53;;;;;;;116.40;42.55;;;;;;;-1.63;50.07;96796.06;4984771;28;20096;-82
2022/03/21 03:45:19;;;;;;;102.40;40.78;;;;;;;-0.80;49.65;96918.44;4984427;28;20049;-83
2022/03/21 03:47:45;;;;;;;107.75;40.47;;;;;;;-1.29;49.06;96829.78;4984700;28;20440;-82
2022/03/21 03:50:10;;;;;;;105.28;40.53;;;;;;;-1.92;49.71;96753.22;4984636;28;20065;-83
2022/03/21 03:52:36;;;;;;;107.32;40.22;;;;;;;-1.37;49.21;96834.16;4985062;28;20038;-82
2022/03/21 03:55:01;;;;;;;106.35;40.47;;;;;;;-0.92;49.00;96886.69;4982743;28;20037;-83
2022/03/21 03:57:27;;;;;;;96.55;38.13;;;;;;;-2.47;49.50;96657.50;4984066;28;20038;-82
2022/03/21 03:59:52;;;;;;;96.50;38.75;;;;;;;-1.63;49.61;96797.84;4984109;28;20817;-82
2022/03/21 04:02:18;;;;;;;91.53;38.70;;;;;;;-2.13;49.51;96720.63;4983868;28;20668;-83
2022/03/21 04:04:43;;;;;;;93.25;38.67;;;;;;;-1.33;50.13;96871.91;4983718;28;20038;-83
2022/03/21 04:07:09;;;;;;;96.40;37.38;;;;;;;-1.45;50.92;96881.00;4982895;28;20133;-83
2022/03/21 04:09:34;;;;;;;98.15;39.08;;;;;;;-1.29;50.70;96884.44;4983148;28;20046;-83
2022/03/21 04:12:00;;;;;;;101.75;39.05;;;;;;;-1.47;49.92;96823.09;4982861;28;20042;-83
2022/03/21 04:14:26;;;;;;;113.30;40.78;;;;;;;-2.13;50.53;96725.81;4983358;28;20594;-83
2022/03/21 04:16:51;;;;;;;107.95;40.92;;;;;;;-1.01;50.17;96925.88;4983273;28;20034;-83
2022/03/21 04:19:17;;;;;;;98.25;37.15;;;;;;;-1.38;50.61;96875.00;4982628;28;20049;-83
2022/03/21 04:21:42;;;;;;;90.97;37.17;;;;;;;-2.18;49.92;96722.06;4983849;28;20068;-83
2022/03/21 04:24:08;;;;;;;100.47;38.00;;;;;;;-1.36;50.21;96841.81;4983669;28;20042;-83
2022/03/21 04:26:33;;;;;;;108.75;40.03;;;;;;;-1.30;50.50;96862.03;4982690;28;20064;-83
2022/03/21 04:29:02;;;;;;;100.40;39.78;;;;;;;-1.46;51.04;96876.75;4982949;28;20034;-84
2022/03/21 04:31:28;;;;;;;97.30;35.63;;;;;;;-2.02;50.39;96779.31;4983414;28;20567;-83
2022/03/21 04:33:53;;;;;;;80.53;32.95;;;;;;;-2.70;49.59;96617.47;4982996;28;20166;-83
2022/03/21 04:36:19;;;;;;;86.75;35.83;;;;;;;-1.93;50.34;96748.97;4982544;28;20034;-82
2022/03/21 04:38:45;;;;;;;95.60;36.28;;;;;;;-1.82;50.02;96778.09;4982176;28;20086;-82
2022/03/21 04:41:10;;;;;;;90.47;35.00;;;;;;;-0.75;49.83;96923.16;4983864;28;20149;-83
2022/03/21 04:43:36;;;;;;;92.55;35.90;;;;;;;-1.83;50.70;96784.25;4981397;28;20413;-83
2022/03/21 04:46:01;;;;;;;104.22;36.85;;;;;;;-1.68;50.85;96831.31;4982606;28;20038;-82
2022/03/21 04:48:26;;;;;;;85.13;34.65;;;;;;;-1.83;50.56;96765.28;4985052;28;20038;-84
2022/03/21 04:50:52;;;;;;;93.60;35.05;;;;;;;-4.29;50.37;96373.34;4979612;28;20520;-83
2022/03/21 04:53:18;;;;;;;91.60;36.75;;;;;;;-2.02;50.39;96756.75;4982550;28;20038;-83
2022/03/21 04:55:44;;;;;;;89.78;36.33;;;;;;;-0.96;50.44;96908.78;4980709;28;20030;-83
2022/03/21 04:58:10;;;;;;;102.35;36.75;;;;;;;-2.53;50.40;96663.31;4981336;28;20047;-84
2022/03/21 05:00:37;;;;;;;88.55;33.35;;;;;;;-1.20;51.36;96880.09;4998272;28;20472;-83
2022/03/21 05:03:07;;;;;;;98.50;34.80;;;;;;;-1.15;51.66;96916.06;4986386;28;20038;-84
2022/03/21 05:05:35;;;;;;;88.45;35.65;;;;;;;-2.35;51.70;96714.19;4974240;28;20034;-84
2022/03/21 05:08:02;;;;;;;97.53;37.45;;;;;;;-1.98;51.64;96786.66;4987109;28;20026;-84
2022/03/21 05:10:27;;;;;;;92.95;38.67;;;;;;;-2.05;51.98;96790.84;4986533;28;20088;-84
2022/03/21 05:12:53;;;;;;;100.30;38.65;;;;;;;-1.49;52.36;96861.47;4977518;28;20166;-83
2022/03/21 05:15:18;;;;;;;105.25;40.28;;;;;;;-1.12;52.40;96919.16;4972031;28;20035;-84
2022/03/21 05:17:44;;;;;;;105.05;39.70;;;;;;;-1.90;51.93;96764.25;4995825;28;20030;-83
2022/03/21 05:20:21;;;;;;;104.88;38.20;;;;;;;-1.54;51.66;96845.50;4990926;28;20622;-83
2022/03/21 05:31:14;;;;;;;111.70;37.85;;;;;;;-3.02;51.32;96580.00;4983817;28;20102;-83
2022/03/21 05:36:27;;;;;;;105.70;40.58;;;;;;;-1.86;52.00;96838.38;4983597;28;20124;-83
2022/03/21 05:38:53;;;;;;;106.05;40.42;;;;;;;-4.23;52.51;96431.50;4984683;28;20047;-83
2022/03/21 05:41:19;;;;;;;105.70;42.40;;;;;;;-1.88;51.79;96780.50;4985647;28;20026;-83
2022/03/21 05:43:47;;;;;;;108.63;38.90;;;;;;;-1.97;51.95;96751.06;4984651;28;20042;-83
2022/03/21 05:46:16;;;;;;;111.22;41.80;;;;;;;-1.57;51.49;96792.81;5003016;28;20038;-84
2022/03/21 05:48:59;;;;;;;99.10;40.20;;;;;;;-3.03;51.15;96528.25;4983834;28;20510;-83
2022/03/21 05:51:30;;;;;;;102.93;40.40;;;;;;;-0.71;51.79;96919.25;4978510;28;20026;-83
2022/03/21 05:54:02;;;;;;;87.30;35.33;;;;;;;-2.75;50.61;96553.81;4983758;28;20904;-83
2022/03/21 05:56:28;;;;;;;89.05;35.55;;;;;;;-0.26;50.03;96926.63;4988068;28;20489;-84
2022/03/21 05:58:55;;;;;;;108.25;34.03;;;;;;;-1.11;49.77;96782.00;4974883;28;20054;-84
2022/03/21 06:01:22;;;;;;;88.97;34.25;;;;;;;-0.47;49.28;96881.00;4970640;28;20133;-85
2022/03/21 06:03:49;;;;;;;91.03;37.92;;;;;;;-0.14;50.22;96899.22;4966515;28;20042;-83
2022/03/21 06:06:15;;;;;;;111.32;41.10;;;;;;;-0.34;50.36;96864.06;4975726;28;20137;-83
2022/03/21 06:08:43;;;;;;;107.78;42.00;;;;;;;-0.66;50.14;96828.38;4974766;28;20039;-84
2022/03/21 06:11:08;;;;;;;117.45;45.55;;;;;;;-1.40;49.96;96722.59;4974710;28;20110;-83
2022/03/21 06:13:36;;;;;;;114.88;42.45;;;;;;;-0.74;49.60;96837.03;4978142;28;20132;-82
2022/03/21 06:16:07;;;;;;;124.00;43.83;;;;;;;-0.62;49.84;96807.06;4989181;28;20458;-87
2022/03/21 06:18:33;;;;;;;108.85;41.85;;;;;;;0.30;48.91;96952.66;4964130;28;20034;-83
2022/03/21 06:21:00;;;;;;;118.60;41.60;;;;;;;0.44;48.08;96935.50;4971925;28;20027;-83
2022/03/21 06:23:27;;;;;;;117.25;44.80;;;;;;;0.55;48.63;96936.91;4973388;28;20033;-83
2022/03/21 06:25:53;;;;;;;130.85;45.67;;;;;;;0.29;48.61;96877.13;4972379;28;20041;-83
2022/03/21 06:28:32;;;;;;;109.55;43.10;;;;;;;0.76;48.04;96937.19;4975964;28;20041;-83
2022/03/21 06:30:58;;;;;;;106.53;39.38;;;;;;;-0.09;47.87;96805.69;4975757;28;20057;-84
2022/03/21 06:33:29;;;;;;;85.13;36.15;;;;;;;-0.11;47.00;96782.38;4983255;28;20047;-84
2022/03/21 06:35:57;;;;;;;65.25;26.27;;;;;;;0.99;45.03;96934.63;4976778;28;20099;-84
2022/03/21 06:38:58;;;;;;;55.08;24.48;;;;;;;0.48;43.60;96868.09;4974176;28;20056;-84
2022/03/21 06:41:24;;;;;;;;;;;;;;;1.06;43.35;96928.56;4969931;28;20169;-83
2022/03/21 06:43:49;;;;;;;45.78;20.13;;;;;;;0.50;42.76;96851.28;4973392;28;19917;-82
2022/03/21 06:46:15;;;;;;;48.28;19.77;;;;;;;0.60;42.34;96824.97;4975291;28;20034;-83
2022/03/21 06:48:40;;;;;;;46.45;20.30;;;;;;;0.67;42.49;96833.75;4990577;28;20030;-83
2022/03/21 06:51:06;;;;;;;47.28;20.67;;;;;;;0.92;42.04;96897.91;4978027;28;20041;-84
2022/03/21 06:53:32;;;;;;;43.10;19.40;;;;;;;1.26;41.82;96905.41;4978717;28;20033;-83
2022/03/21 06:55:57;;;;;;;45.15;16.83;;;;;;;1.43;41.17;96933.06;4993507;28;20040;-83
2022/03/21 06:58:23;;;;;;;33.80;15.70;;;;;;;0.56;40.71;96776.69;4972192;28;20960;-83
2022/03/21 07:00:48;;;;;;;44.00;14.80;;;;;;;1.44;40.72;96936.50;4978974;28;20034;-84
2022/03/21 07:03:15;;;;;;;25.08;13.80;;;;;;;1.14;40.71;96894.50;4981282;28;20033;-84
2022/03/21 07:05:41;;;;;;;32.25;14.57;;;;;;;0.43;40.27;96787.69;4981816;28;20048;-84
2022/03/21 07:08:17;;;;;;;29.98;13.80;;;;;;;-0.64;40.49;96564.09;4978457;28;20715;-85
2022/03/21 07:10:51;;;;;;;38.03;15.10;;;;;;;-1.13;39.88;96451.50;4994229;28;20133;-85
2022/03/21 07:13:17;;;;;;;32.55;15.30;;;;;;;0.13;39.69;96652.81;4974910;28;20038;-84
2022/03/21 07:15:45;;;;;;;44.42;17.55;;;;;;;-0.42;39.71;96571.16;4976547;28;20922;-84
2022/03/21 07:18:11;;;;;;;37.53;17.02;;;;;;;-0.24;39.65;96593.56;4969898;28;20038;-85
2022/03/21 07:20:37;;;;;;;41.05;17.77;;;;;;;-3.41;39.77;96117.13;4976070;28;20130;-85
2022/03/21 07:23:03;;;;;;;37.53;17.83;;;;;;;-3.23;40.66;96160.09;4970487;28;20054;-85
2022/03/21 07:25:31;;;;;;;39.65;18.75;;;;;;;-2.86;39.67;96182.06;4975795;28;20137;-84
2022/03/21 07:27:57;;;;;;;37.38;16.23;;;;;;;-0.60;40.39;96487.19;4977424;28;20057;-83
2022/03/21 07:30:22;;;;;;;38.85;17.33;;;;;;;-2.85;40.90;96183.69;4981267;28;20026;-84
2022/03/21 07:32:49;;;;;;;47.33;15.82;;;;;;;0.10;40.53;96598.38;4981837;28;20096;-84
2022/03/21 07:35:15;;;;;;;32.90;13.95;;;;;;;0.37;40.49;96648.25;4978843;28;20042;-84
2022/03/21 07:37:46;;;;;;;34.05;14.77;;;;;;;-3.59;40.39;96011.84;4982225;28;20084;-84
2022/03/21 07:40:12;;;;;;;36.80;16.38;;;;;;;-0.09;40.41;96615.31;4977310;28;20046;-84
2022/03/21 07:42:39;;;;;;;28.40;13.93;;;;;;;-0.25;40.50;96578.88;4976121;28;20070;-84
2022/03/21 07:47:51;;;;;;;33.20;12.70;;;;;;;-2.09;39.31;96225.47;4976561;28;20057;-84
2022/03/21 07:50:17;;;;;;;31.63;13.82;;;;;;;0.03;40.08;96594.84;4989395;28;20038;-84
2022/03/21 07:52:43;;;;;;;35.38;13.90;;;;;;;1.36;40.18;96745.72;4978662;28;20535;-84
2022/03/21 07:55:09;;;;;;;26.35;12.95;;;;;;;-1.70;38.63;96281.84;4980008;28;20065;-85
2022/03/21 07:57:36;;;;;;;27.38;13.27;;;;;;;-2.40;38.94;96100.75;4994275;28;20030;-84
2022/03/21 08:00:11;;;;;;;26.10;13.15;;;;;;;-3.02;37.54;96045.38;4992799;28;20033;-83
2022/03/21 08:02:37;;;;;;;24.90;12.95;;;;;;;-0.97;38.81;96349.06;4971401;28;20041;-83
2022/03/21 08:05:04;;;;;;;32.72;13.30;;;;;;;-2.10;39.01;96139.88;4979070;28;20030;-83
2022/03/21 08:07:31;;;;;;;38.22;14.10;;;;;;;2.66;40.10;96903.00;4971695;28;20121;-83
2022/03/21 08:09:56;;;;;;;29.25;13.30;;;;;;;2.00;39.01;96788.69;4975207;28;20807;-84
2022/03/21 08:12:22;;;;;;;28.27;13.45;;;;;;;2.14;38.89;96782.63;4984139;28;20034;-84
2022/03/21 08:14:47;;;;;;;37.38;13.90;;;;;;;0.48;39.25;96566.09;4972976;28;20034;-84
2022/03/21 08:17:13;;;;;;;33.70;14.65;;;;;;;0.34;38.14;96515.50;4972417;28;20030;-84
2022/03/21 08:19:39;;;;;;;27.90;13.50;;;;;;;0.36;39.38;96518.75;4971106;28;20096;-84
2022/03/21 08:22:04;;;;;;;33.60;14.77;;;;;;;-0.79;38.56;96326.16;4969888;28;20038;-84
2022/03/21 08:24:36;;;;;;;38.17;15.25;;;;;;;0.43;38.51;96544.97;4970854;28;20042;-84
2022/03/21 08:27:04;;;;;;;26.70;14.45;;;;;;;-1.42;38.59;96209.31;4985756;28;20688;-84
2022/03/21 08:29:31;;;;;;;33.05;14.73;;;;;;;-2.52;39.85;96026.78;4968475;28;20042;-85
2022/03/21 08:31:56;;;;;;;29.15;14.18;;;;;;;-0.43;38.46;96321.94;4974596;28;20045;-84
2022/03/21 08:34:22;;;;;;;34.63;15.57;;;;;;;2.73;38.70;96850.66;4972571;28;20038;-84
2022/03/21 08:36:48;;;;;;;46.47;16.27;;;;;;;2.23;40.35;96751.94;4980328;28;20038;-84
2022/03/21 08:39:14;;;;;;;35.38;15.45;;;;;;;2.76;39.25;96791.84;4971007;28;20042;-84
2022/03/21 08:41:40;;;;;;;34.95;15.93;;;;;;;2.65;40.31;96761.72;4969109;28;20189;-84
2022/03/21 08:44:05;;;;;;;26.52;14.18;;;;;;;2.54;37.64;96742.03;4970250;28;20034;-83
2022/03/21 08:46:31;;;;;;;31.23;12.73;;;;;;;2.62;36.94;96717.53;4971925;28;20046;-83
2022/03/21 08:49:23;;;;;;;30.88;12.93;;;;;;;3.19;37.04;96804.00;4973377;28;20038;-86
2022/03/21 08:51:50;;;;;;;24.33;12.48;;;;;;;3.69;38.82;96859.91;4980776;28;20034;-86
2022/03/21 08:54:15;;;;;;;26.75;12.20;;;;;;;3.76;37.50;96856.31;4968204;28;20034;-84
2022/03/21 08:56:41;;;;;;;28.73;11.85;;;;;;;2.50;37.74;96658.81;4964818;28;20041;-84
2022/03/21 08:59:07;;;;;;;35.75;12.80;;;;;;;3.05;36.84;96755.06;4965323;28;20133;-84
2022/03/21 09:01:40;;;;;;;24.13;10.68;;;;;;;3.17;37.05;96829.56;4971343;28;20038;-85
2022/03/21 09:04:05;;;;;;;35.80;12.85;;;;;;;3.12;37.19;96760.38;4969832;28;20034;-86
2022/03/21 09:06:32;;;;;;;23.98;12.00;;;;;;;3.74;36.07;96852.25;4974256;28;20045;-84
2022/03/21 09:08:58;;;;;;;28.60;12.30;;;;;;;3.20;36.74;96758.44;4960532;28;20045;-85
2022/03/21 09:11:24;;;;;;;25.23;11.48;;;;;;;3.86;37.50;96858.63;4974467;28;20761;-85
2022/03/21 09:13:49;;;;;;;30.10;12.25;;;;;;;2.64;36.43;96660.56;4966940;28;20023;-85
2022/03/21 09:16:16;;;;;;;26.58;12.20;;;;;;;3.53;36.04;96808.50;4969451;28;20045;-83
2022/03/21 09:18:42;;;;;;;28.90;12.25;;;;;;;3.17;35.75;96734.38;4971165;28;20116;-84
2022/03/21 09:21:08;;;;;;;23.75;11.75;;;;;;;4.05;36.83;96863.19;4970088;28;20130;-84
2022/03/21 09:23:34;;;;;;;28.30;11.90;;;;;;;3.10;36.97;96690.59;4982774;28;20030;-83
2022/03/21 09:26:01;;;;;;;44.13;12.98;;;;;;;4.07;37.08;96853.31;4969412;28;20811;-84
2022/03/21 09:28:31;;;;;;;23.40;10.88;;;;;;;3.92;36.43;96812.44;4967004;28;20108;-85
2022/03/21 09:30:56;;;;;;;24.40;11.93;;;;;;;1.57;36.24;96436.47;4970894;28;20033;-83
2022/03/21 09:33:22;;;;;;;21.48;11.30;;;;;;;-0.67;36.61;96102.50;4972842;28;20026;-84
2022/03/21 09:35:51;;;;;;;23.50;11.60;;;;;;;3.55;36.45;96756.69;4975495;28;20062;-84
2022/03/21 09:38:17;;;;;;;29.17;12.48;;;;;;;2.35;34.88;96572.47;4967581;28;20037;-85
2022/03/21 09:40:43;;;;;;;37.35;13.07;;;;;;;0.44;36.52;96261.28;4969401;28;20038;-85
2022/03/21 09:43:10;;;;;;;19.90;10.27;;;;;;;2.80;36.63;96628.84;4974834;28;20037;-83
2022/03/21 09:45:36;;;;;;;22.52;11.98;;;;;;;1.00;35.70;96317.91;4972264;28;20933;-84
2022/03/21 09:48:10;;;;;;;27.23;11.63;;;;;;;3.10;35.90;96603.28;4971466;28;20034;-84
2022/03/21 09:50:39;;;;;;;26.25;13.20;;;;;;;-0.31;36.94;96045.22;4969906;28;20101;-83
2022/03/21 09:53:07;;;;;;;29.08;12.57;;;;;;;1.88;36.00;96413.44;4970112;28;20554;-84
2022/03/21 09:55:33;;;;;;;23.98;12.07;;;;;;;2.67;35.17;96503.03;4971580;28;20038;-84
2022/03/21 09:57:59;;;;;;;29.70;12.27;;;;;;;1.26;34.25;96316.56;4979325;28;20120;-84
2022/03/21 10:00:27;;;;;;;27.10;11.43;;;;;;;3.79;32.91;96685.38;5000639;28;20041;-85
2022/03/21 10:02:54;;;;;;;25.48;11.77;;;;;;;2.31;35.87;96479.59;4987430;28;20033;-84
2022/03/21 10:05:42;;;;;;;28.10;12.60;;;;;;;5.11;35.61;96819.06;5002532;28;20036;-84
2022/03/21 10:08:17;;;;;;;30.13;12.52;;;;;;;4.53;34.76;96730.13;4987963;28;20048;-83
2022/03/21 10:11:06;;;;;;;27.20;12.50;;;;;;;5.79;33.21;96828.44;4987577;28;20041;-83
2022/03/21 10:13:41;;;;;;;26.50;12.18;;;;;;;5.79;33.21;96828.44;4965567;28;20124;-84
2022/03/21 10:16:15;;;;;;;23.70;11.63;;;;;;;3.93;32.44;96276.00;4984947;28;20505;-84
2022/03/21 10:18:52;;;;;;;33.55;11.13;;;;;;;8.19;30.62;96818.13;5002708;28;20705;-83
2022/03/21 10:21:21;;;;;;;25.90;12.85;;;;;;;8.57;28.81;96712.19;5006249;28;20039;-84
2022/03/21 10:24:10;;;;;;;21.58;12.00;;;;;;;9.59;28.05;96778.09;4987546;28;20038;-84
2022/03/21 10:26:40;;;;;;;22.10;12.23;;;;;;;10.35;27.55;96816.19;5005732;28;20025;-84
2022/03/21 10:29:13;;;;;;;20.52;11.30;;;;;;;7.21;25.13;96261.97;4982137;28;21003;-84
2022/03/21 10:31:44;;;;;;;27.70;11.02;;;;;;;9.77;25.48;96540.56;5007745;28;20086;-84
2022/03/21 10:34:17;;;;;;;19.42;11.68;;;;;;;9.48;24.35;96397.53;5002364;28;20061;-84
2022/03/21 10:37:04;;;;;;;16.58;10.50;;;;;;;12.29;24.22;96804.34;5004401;28;20061;-83
2022/03/21 10:39:34;;;;;;;21.75;11.07;;;;;;;12.79;24.40;96794.63;5004263;28;20023;-83
2022/03/21 10:42:01;;;;;;;34.13;12.95;;;;;;;12.99;22.95;96800.97;4984595;28;20110;-84
2022/03/21 10:44:27;;;;;;;24.33;11.98;;;;;;;12.67;23.31;96726.34;5000381;28;20038;-84
2022/03/21 10:46:55;;;;;;;22.35;12.35;;;;;;;13.39;23.17;96768.69;4986733;28;20052;-85
2022/03/21 10:49:38;;;;;;;23.30;12.57;;;;;;;12.92;22.47;96756.97;4991697;28;20049;-85
2022/03/21 10:52:05;;;;;;;20.75;12.73;;;;;;;11.94;22.84;96679.66;4989221;28;20533;-85
2022/03/21 10:54:50;;;;;;;23.02;11.68;;;;;;;12.74;23.24;96793.50;4986268;28;20026;-84
2022/03/21 10:57:37;;;;;;;24.48;12.32;;;;;;;12.59;24.11;96784.50;4991593;28;20030;-84
2022/03/21 11:00:20;;;;;;;24.30;12.65;;;;;;;12.52;23.03;96792.69;4980945;28;20071;-84
2022/03/21 11:03:09;;;;;;;23.98;12.60;;;;;;;11.74;23.61;96666.09;4991305;28;20083;-83
2022/03/21 11:05:48;;;;;;;26.55;11.50;;;;;;;11.94;23.50;96772.72;4992956;28;20595;-84
2022/03/21 11:08:16;;;;;;;26.63;12.32;;;;;;;9.62;23.12;96437.78;5005006;28;20126;-85
2022/03/21 11:11:10;;;;;;;16.23;10.68;;;;;;;11.66;23.50;96811.84;5001692;28;20049;-85
2022/03/21 11:13:37;;;;;;;21.50;10.75;;;;;;;9.11;23.89;96449.22;4990659;28;20047;-84
2022/03/21 11:16:03;;;;;;;26.45;12.70;;;;;;;6.70;23.53;96024.41;4986648;28;20045;-84
2022/03/21 11:18:30;;;;;;;26.75;12.10;;;;;;;10.50;23.73;96601.66;5003947;28;20034;-84
2022/03/21 11:21:00;;;;;;;21.88;12.07;;;;;;;7.59;23.16;96131.41;4992273;28;20040;-83
2022/03/21 11:23:30;;;;;;;19.70;10.65;;;;;;;5.38;23.56;95927.06;4984600;28;20191;-85
2022/03/21 11:26:01;;;;;;;20.98;10.23;;;;;;;9.43;23.88;96519.25;4993403;28;20041;-84
2022/03/21 11:29:23;;;;;;;26.60;10.65;;;;;;;11.26;23.04;96772.09;4986925;28;20512;-83
2022/03/21 11:32:04;;;;;;;21.63;9.90;;;;;;;11.91;23.31;96746.59;4958719;28;20162;-84
2022/03/21 11:34:38;;;;;;;24.92;11.30;;;;;;;11.41;24.53;96746.59;4957613;28;20058;-84
2022/03/21 11:37:04;;;;;;;14.13;9.65;;;;;;;11.07;23.67;96670.56;4971634;28;20041;-84
2022/03/21 11:39:30;;;;;;;17.40;10.45;;;;;;;10.32;23.93;96557.56;4983488;28;20029;-84
2022/03/21 11:41:59;;;;;;;16.50;9.88;;;;;;;11.70;24.32;96734.03;4981078;28;20037;-84